createdAt,value
2022-08-17T00:00:42.810Z,19.68
2022-08-17T00:01:25.597Z,19.70
2022-08-17T00:02:26.912Z,19.68
2022-08-17T00:03:25.193Z,19.67
2022-08-17T00:04:24.526Z,19.67
2022-08-17T00:05:24.703Z,19.68
2022-08-17T00:06:24.492Z,19.72
2022-08-17T00:07:24.974Z,19.72
2022-08-17T00:08:24.503Z,19.70
2022-08-17T00:09:24.532Z,19.67
2022-08-17T00:10:24.427Z,19.71
2022-08-17T00:11:24.453Z,19.68
2022-08-17T00:12:41.203Z,19.72
2022-08-17T00:13:24.633Z,19.74
2022-08-17T00:14:24.413Z,19.70
2022-08-17T00:15:24.392Z,19.68
2022-08-17T00:16:55.461Z,19.64
2022-08-17T00:17:24.376Z,19.71
2022-08-17T00:19:01.766Z,19.67
2022-08-17T00:19:24.423Z,19.64
2022-08-17T00:20:32.041Z,19.62
2022-08-17T00:21:25.299Z,19.57
2022-08-17T00:22:33.172Z,19.54
2022-08-17T00:23:24.331Z,19.54
2022-08-17T00:24:24.352Z,19.56
2022-08-17T00:25:24.322Z,19.57
2022-08-17T00:26:44.228Z,19.53
2022-08-17T00:27:24.303Z,19.53
2022-08-17T00:28:24.311Z,19.52
2022-08-17T00:29:24.462Z,19.52
2022-08-17T00:30:24.783Z,19.50
2022-08-17T00:31:24.272Z,19.44
2022-08-17T00:33:14.415Z,19.42
2022-08-17T00:33:24.367Z,19.38
2022-08-17T00:34:24.292Z,19.35
2022-08-17T00:35:24.322Z,19.31
2022-08-17T00:36:24.250Z,19.32
2022-08-17T00:37:24.240Z,19.34
2022-08-17T00:38:24.242Z,19.35
2022-08-17T00:39:24.267Z,19.39
2022-08-17T00:40:24.640Z,19.38
2022-08-17T00:41:24.200Z,19.41
2022-08-17T00:42:28.833Z,19.42
2022-08-17T00:43:24.540Z,19.38
2022-08-17T00:44:24.549Z,19.35
2022-08-17T00:45:24.191Z,19.32
2022-08-17T00:46:24.170Z,19.31
2022-08-17T00:47:24.163Z,19.31
2022-08-17T00:48:29.907Z,19.24
2022-08-17T00:49:24.334Z,19.22
2022-08-17T00:50:24.220Z,19.20
2022-08-17T00:51:24.220Z,19.19
2022-08-17T00:52:24.139Z,19.22
2022-08-17T00:53:24.125Z,19.22
2022-08-17T00:54:24.121Z,19.19
2022-08-17T00:55:24.120Z,19.17
2022-08-17T00:56:24.111Z,19.19
2022-08-17T00:57:24.100Z,19.19
2022-08-17T00:58:28.785Z,19.20
2022-08-17T00:59:24.080Z,19.17
2022-08-17T01:00:24.847Z,19.19
2022-08-17T01:01:24.118Z,19.17
2022-08-17T01:02:24.060Z,19.13
2022-08-17T01:03:24.059Z,19.07
2022-08-17T01:04:24.118Z,19.05
2022-08-17T01:05:24.058Z,19.00
2022-08-17T01:06:24.042Z,18.98
2022-08-17T01:07:24.030Z,18.96
2022-08-17T01:08:24.027Z,18.94
2022-08-17T01:09:24.019Z,18.91
2022-08-17T01:10:59.497Z,18.91
2022-08-17T01:11:24.001Z,18.94
2022-08-17T01:12:23.999Z,18.97
2022-08-17T01:13:23.991Z,18.97
2022-08-17T01:14:24.013Z,19.00
2022-08-17T01:15:23.988Z,19.04
2022-08-17T01:16:23.968Z,19.00
2022-08-17T01:17:23.955Z,19.01
2022-08-17T01:18:23.958Z,19.01
2022-08-17T01:19:23.937Z,19.05
2022-08-17T01:20:23.957Z,19.05
2022-08-17T01:21:23.929Z,19.07
2022-08-17T01:22:23.950Z,19.01
2022-08-17T01:23:23.968Z,19.01
2022-08-17T01:24:23.914Z,19.05
2022-08-17T01:25:23.903Z,19.08
2022-08-17T01:26:23.907Z,19.07
2022-08-17T01:27:23.908Z,19.12
2022-08-17T01:28:53.246Z,19.05
2022-08-17T01:29:23.877Z,19.07
2022-08-17T01:30:57.188Z,19.01
2022-08-17T01:31:23.877Z,19.00
2022-08-17T01:32:23.856Z,18.97
2022-08-17T01:33:23.846Z,19.01
2022-08-17T01:34:23.847Z,18.98
2022-08-17T01:35:23.827Z,18.98
2022-08-17T01:36:24.125Z,18.96
2022-08-17T01:37:23.814Z,18.97
2022-08-17T01:38:27.187Z,18.89
2022-08-17T01:39:23.915Z,18.86
2022-08-17T01:40:23.812Z,18.88
2022-08-17T01:41:23.815Z,18.91
2022-08-17T01:42:23.806Z,18.89
2022-08-17T01:43:23.834Z,18.94
2022-08-17T01:44:23.797Z,18.97
2022-08-17T01:45:23.784Z,18.97
2022-08-17T01:46:23.874Z,18.98
2022-08-17T01:47:23.755Z,18.98
2022-08-17T01:48:24.133Z,19.00
2022-08-17T01:49:23.734Z,18.97
2022-08-17T01:50:23.737Z,18.93
2022-08-17T01:51:23.754Z,18.86
2022-08-17T01:52:23.724Z,18.82
2022-08-17T01:53:24.136Z,18.83
2022-08-17T01:54:23.705Z,18.85
2022-08-17T01:55:27.307Z,18.82
2022-08-17T01:56:23.706Z,18.82
2022-08-17T01:57:23.684Z,18.83
2022-08-17T01:58:24.644Z,18.83
2022-08-17T01:59:24.544Z,18.83
2022-08-17T02:00:23.675Z,18.79
2022-08-17T02:01:23.725Z,18.74
2022-08-17T02:02:30.593Z,18.76
2022-08-17T02:03:23.744Z,18.82
2022-08-17T02:04:23.634Z,18.81
2022-08-17T02:05:23.844Z,18.83
2022-08-17T02:06:27.822Z,18.89
2022-08-17T02:07:26.068Z,18.88
2022-08-17T02:08:37.008Z,18.86
2022-08-17T02:09:25.316Z,18.83
2022-08-17T02:10:23.696Z,18.83
2022-08-17T02:11:23.734Z,18.76
2022-08-17T02:12:37.733Z,18.70
2022-08-17T02:13:23.572Z,18.64
2022-08-17T02:14:23.563Z,18.60
2022-08-17T02:15:23.578Z,18.51
2022-08-17T02:16:24.021Z,18.45
2022-08-17T02:17:23.543Z,18.38
2022-08-17T02:18:23.542Z,18.33
2022-08-17T02:19:23.551Z,18.30
2022-08-17T02:20:42.523Z,18.30
2022-08-17T02:21:23.982Z,18.33
2022-08-17T02:22:24.194Z,18.28
2022-08-17T02:23:23.511Z,18.26
2022-08-17T02:24:28.150Z,18.27
2022-08-17T02:25:23.481Z,18.24
2022-08-17T02:26:24.059Z,18.23
2022-08-17T02:27:23.511Z,18.20
2022-08-17T02:28:23.471Z,18.18
2022-08-17T02:29:24.481Z,18.20
2022-08-17T02:31:00.309Z,18.21
2022-08-17T02:31:23.459Z,18.21
2022-08-17T02:32:27.575Z,18.18
2022-08-17T02:33:23.661Z,18.15
2022-08-17T02:34:24.283Z,18.15
2022-08-17T02:35:24.153Z,18.12
2022-08-17T02:36:27.302Z,18.08
2022-08-17T02:37:23.490Z,18.08
2022-08-17T02:38:23.400Z,18.08
2022-08-17T02:39:23.393Z,18.03
2022-08-17T02:40:35.768Z,18.03
2022-08-17T02:41:23.385Z,17.97
2022-08-17T02:42:23.412Z,18.01
2022-08-17T02:43:23.360Z,17.90
2022-08-17T02:44:38.685Z,17.86
2022-08-17T02:45:23.730Z,17.83
2022-08-17T02:46:23.340Z,17.90
2022-08-17T02:47:23.461Z,17.93
2022-08-17T02:48:30.507Z,17.94
2022-08-17T02:49:23.330Z,17.94
2022-08-17T02:50:23.330Z,17.91
2022-08-17T02:51:23.309Z,17.93
2022-08-17T02:52:43.849Z,17.90
2022-08-17T02:53:25.695Z,17.88
2022-08-17T02:54:39.825Z,17.88
2022-08-17T02:55:23.274Z,17.97
2022-08-17T02:56:23.276Z,17.94
2022-08-17T02:57:23.358Z,17.90
2022-08-17T02:58:34.774Z,17.93
2022-08-17T02:59:23.262Z,17.91
2022-08-17T03:00:23.249Z,17.93
2022-08-17T03:01:23.298Z,17.93
2022-08-17T03:02:23.249Z,17.90
2022-08-17T03:03:23.228Z,17.86
2022-08-17T03:04:23.214Z,17.81
2022-08-17T03:05:23.219Z,17.79
2022-08-17T03:06:23.209Z,17.75
2022-08-17T03:07:23.206Z,17.73
2022-08-17T03:08:23.197Z,17.69
2022-08-17T03:09:23.201Z,17.69
2022-08-17T03:10:23.177Z,17.69
2022-08-17T03:11:23.207Z,17.69
2022-08-17T03:12:23.888Z,17.69
2022-08-17T03:13:23.247Z,17.72
2022-08-17T03:14:26.030Z,17.71
2022-08-17T03:15:23.139Z,17.69
2022-08-17T03:16:23.132Z,17.69
2022-08-17T03:17:23.158Z,17.65
2022-08-17T03:18:24.536Z,17.63
2022-08-17T03:19:23.128Z,17.68
2022-08-17T03:20:23.118Z,17.69
2022-08-17T03:21:23.108Z,17.72
2022-08-17T03:22:36.483Z,17.75
2022-08-17T03:23:24.156Z,17.76
2022-08-17T03:24:28.825Z,17.73
2022-08-17T03:25:23.078Z,17.78
2022-08-17T03:26:23.077Z,17.76
2022-08-17T03:27:23.756Z,17.76
2022-08-17T03:28:23.065Z,17.75
2022-08-17T03:29:23.069Z,17.75
2022-08-17T03:30:23.056Z,17.72
2022-08-17T03:31:23.045Z,17.72
2022-08-17T03:32:23.196Z,17.72
2022-08-17T03:33:23.035Z,17.73
2022-08-17T03:34:23.283Z,17.72
2022-08-17T03:35:23.396Z,17.75
2022-08-17T03:36:23.017Z,17.66
2022-08-17T03:37:23.005Z,17.69
2022-08-17T03:38:23.271Z,17.68
2022-08-17T03:39:23.144Z,17.68
2022-08-17T03:40:34.478Z,17.68
2022-08-17T03:41:23.475Z,17.68
2022-08-17T03:42:32.072Z,17.65
2022-08-17T03:43:22.953Z,17.65
2022-08-17T03:44:22.946Z,17.69
2022-08-17T03:45:22.935Z,17.69
2022-08-17T03:46:27.607Z,17.75
2022-08-17T03:47:22.935Z,17.72
2022-08-17T03:48:22.935Z,17.71
2022-08-17T03:49:22.916Z,17.72
2022-08-17T03:50:22.914Z,17.71
2022-08-17T03:51:22.902Z,17.66
2022-08-17T03:52:22.914Z,17.63
2022-08-17T03:53:22.871Z,17.57
2022-08-17T03:54:22.876Z,17.63
2022-08-17T03:55:23.094Z,17.63
2022-08-17T03:56:22.863Z,17.65
2022-08-17T03:57:22.866Z,17.63
2022-08-17T03:58:22.846Z,17.63
2022-08-17T03:59:22.834Z,17.62
2022-08-17T04:00:22.854Z,17.59
2022-08-17T04:01:22.899Z,17.59
2022-08-17T04:02:22.831Z,17.57
2022-08-17T04:03:22.803Z,17.62
2022-08-17T04:04:27.545Z,17.62
2022-08-17T04:05:22.797Z,17.63
2022-08-17T04:06:23.611Z,17.62
2022-08-17T04:07:22.813Z,17.63
2022-08-17T04:08:23.253Z,17.62
2022-08-17T04:09:22.773Z,17.62
2022-08-17T04:10:26.395Z,17.62
2022-08-17T04:11:23.211Z,17.63
2022-08-17T04:12:22.851Z,17.68
2022-08-17T04:13:24.972Z,17.66
2022-08-17T04:14:22.761Z,17.69
2022-08-17T04:15:22.730Z,17.69
2022-08-17T04:16:23.341Z,17.71
2022-08-17T04:17:22.731Z,17.76
2022-08-17T04:18:22.719Z,17.73
2022-08-17T04:19:22.701Z,17.76
2022-08-17T04:20:22.703Z,17.81
2022-08-17T04:21:23.711Z,17.84
2022-08-17T04:22:32.024Z,17.79
2022-08-17T04:23:23.239Z,17.88
2022-08-17T04:24:22.669Z,17.93
2022-08-17T04:25:22.672Z,17.97
2022-08-17T04:26:52.981Z,17.97
2022-08-17T04:27:23.459Z,18.01
2022-08-17T04:28:22.648Z,18.01
2022-08-17T04:29:22.699Z,18.02
2022-08-17T04:30:22.626Z,17.97
2022-08-17T04:31:22.776Z,18.02
2022-08-17T04:33:02.282Z,18.02
2022-08-17T04:33:22.899Z,18.02
2022-08-17T04:34:22.608Z,18.01
2022-08-17T04:35:22.621Z,18.03
2022-08-17T04:36:22.599Z,17.99
2022-08-17T04:37:22.739Z,17.94
2022-08-17T04:38:22.737Z,17.94
2022-08-17T04:39:22.549Z,17.93
2022-08-17T04:40:22.552Z,17.97
2022-08-17T04:41:22.955Z,17.99
2022-08-17T04:42:23.007Z,18.02
2022-08-17T04:43:22.580Z,18.05
2022-08-17T04:44:37.117Z,18.03
2022-08-17T04:45:22.742Z,18.05
2022-08-17T04:46:23.048Z,18.09
2022-08-17T04:47:22.570Z,18.11
2022-08-17T04:48:22.729Z,18.17
2022-08-17T04:49:22.490Z,18.17
2022-08-17T04:50:22.491Z,18.26
2022-08-17T04:51:23.402Z,18.27
2022-08-17T04:52:32.306Z,18.33
2022-08-17T04:53:22.519Z,18.34
2022-08-17T04:54:23.178Z,18.33
2022-08-17T04:55:22.609Z,18.39
2022-08-17T04:56:22.440Z,18.39
2022-08-17T04:57:22.430Z,18.36
2022-08-17T04:58:22.517Z,18.39
2022-08-17T04:59:22.788Z,18.38
2022-08-17T05:00:23.299Z,18.41
2022-08-17T05:01:24.319Z,18.42
2022-08-17T05:02:22.527Z,18.38
2022-08-17T05:03:22.548Z,18.39
2022-08-17T05:04:34.073Z,18.36
2022-08-17T05:05:22.458Z,18.31
2022-08-17T05:06:22.388Z,18.38
2022-08-17T05:07:24.620Z,18.43
2022-08-17T05:08:22.420Z,18.43
2022-08-17T05:09:22.646Z,18.46
2022-08-17T05:10:22.359Z,18.45
2022-08-17T05:11:22.757Z,18.48
2022-08-17T05:12:22.457Z,18.51
2022-08-17T05:13:22.357Z,18.49
2022-08-17T05:14:22.337Z,18.52
2022-08-17T05:15:22.319Z,18.54
2022-08-17T05:16:22.593Z,18.56
2022-08-17T05:17:22.447Z,18.54
2022-08-17T05:18:22.455Z,18.56
2022-08-17T05:19:22.286Z,18.61
2022-08-17T05:20:22.284Z,18.66
2022-08-17T05:21:22.287Z,18.71
2022-08-17T05:22:22.282Z,18.79
2022-08-17T05:23:22.275Z,18.81
2022-08-17T05:24:42.673Z,18.86
2022-08-17T05:25:24.965Z,18.94
2022-08-17T05:26:26.977Z,19.00
2022-08-17T05:27:22.281Z,19.08
2022-08-17T05:28:24.112Z,19.13
2022-08-17T05:29:22.215Z,19.20
2022-08-17T05:30:22.326Z,19.30
2022-08-17T05:31:22.203Z,19.34
2022-08-17T05:32:38.184Z,19.44
2022-08-17T05:33:22.195Z,19.54
2022-08-17T05:34:22.191Z,19.64
2022-08-17T05:35:22.184Z,19.68
2022-08-17T05:36:37.967Z,19.75
2022-08-17T05:37:22.812Z,19.79
2022-08-17T05:38:22.165Z,19.86
2022-08-17T05:39:22.156Z,19.89
2022-08-17T05:40:22.146Z,19.96
2022-08-17T05:41:22.135Z,20.02
2022-08-17T05:42:22.157Z,20.08
2022-08-17T05:43:22.185Z,20.15
2022-08-17T05:44:22.314Z,20.15
2022-08-17T05:45:39.877Z,20.23
2022-08-17T05:46:22.154Z,20.27
2022-08-17T05:47:22.112Z,20.33
2022-08-17T05:48:22.234Z,20.32
2022-08-17T05:49:22.075Z,20.33
2022-08-17T05:50:25.739Z,20.32
2022-08-17T05:51:22.066Z,20.37
2022-08-17T05:52:22.074Z,20.41
2022-08-17T05:53:22.204Z,20.44
2022-08-17T05:54:22.043Z,20.55
2022-08-17T05:55:22.063Z,20.58
2022-08-17T05:56:29.465Z,20.61
2022-08-17T05:57:22.025Z,20.65
2022-08-17T05:58:22.214Z,20.75
2022-08-17T05:59:22.003Z,20.82
2022-08-17T06:00:22.025Z,20.85
2022-08-17T06:01:22.035Z,20.88
2022-08-17T06:02:22.987Z,20.93
2022-08-17T06:03:21.974Z,20.92
2022-08-17T06:04:22.793Z,21.01
2022-08-17T06:05:21.963Z,21.01
2022-08-17T06:06:21.963Z,21.04
2022-08-17T06:07:23.013Z,21.05
2022-08-17T06:08:21.967Z,21.07
2022-08-17T06:09:27.663Z,21.08
2022-08-17T06:10:22.643Z,21.08
2022-08-17T06:11:22.892Z,21.11
2022-08-17T06:12:22.405Z,21.16
2022-08-17T06:13:21.920Z,21.20
2022-08-17T06:14:21.975Z,21.22
2022-08-17T06:15:21.921Z,21.26
2022-08-17T06:16:33.628Z,21.26
2022-08-17T06:17:21.873Z,21.28
2022-08-17T06:18:21.898Z,21.23
2022-08-17T06:19:21.890Z,21.25
2022-08-17T06:20:21.872Z,21.28
2022-08-17T06:21:23.550Z,21.30
2022-08-17T06:22:21.975Z,21.32
2022-08-17T06:23:21.846Z,21.30
2022-08-17T06:24:22.283Z,21.30
2022-08-17T06:25:21.831Z,21.34
2022-08-17T06:26:21.831Z,21.40
2022-08-17T06:27:21.821Z,21.40
2022-08-17T06:28:21.813Z,21.43
2022-08-17T06:29:22.614Z,21.48
2022-08-17T06:30:21.793Z,21.53
2022-08-17T06:31:21.793Z,21.55
2022-08-17T06:32:21.792Z,21.59
2022-08-17T06:33:21.775Z,21.60
2022-08-17T06:34:21.797Z,21.69
2022-08-17T06:35:21.773Z,21.71
2022-08-17T06:36:21.772Z,21.77
2022-08-17T06:37:22.244Z,21.93
2022-08-17T06:38:37.637Z,21.97
2022-08-17T06:39:21.751Z,22.01
2022-08-17T06:40:21.730Z,22.13
2022-08-17T06:41:21.727Z,22.19
2022-08-17T06:43:02.617Z,22.19
2022-08-17T06:43:21.701Z,22.27
2022-08-17T06:44:43.651Z,22.31
2022-08-17T06:45:21.783Z,22.38
2022-08-17T06:46:22.021Z,22.43
2022-08-17T06:47:28.804Z,22.51
2022-08-17T06:48:21.944Z,22.55
2022-08-17T06:49:22.492Z,22.64
2022-08-17T06:50:21.672Z,22.70
2022-08-17T06:51:21.662Z,22.78
2022-08-17T06:52:43.386Z,22.86
2022-08-17T06:53:21.640Z,22.89
2022-08-17T06:54:21.683Z,22.92
2022-08-17T06:55:21.623Z,22.95
2022-08-17T06:56:21.622Z,22.95
2022-08-17T06:57:21.618Z,22.93
2022-08-17T06:58:21.611Z,22.92
2022-08-17T06:59:22.101Z,22.95
2022-08-17T07:00:21.592Z,22.99
2022-08-17T07:01:21.608Z,23.01
2022-08-17T07:02:29.132Z,23.06
2022-08-17T07:03:22.191Z,23.07
2022-08-17T07:04:21.563Z,23.11
2022-08-17T07:05:22.148Z,23.13
2022-08-17T07:06:21.550Z,23.23
2022-08-17T07:07:21.540Z,23.25
2022-08-17T07:08:23.412Z,23.21
2022-08-17T07:09:21.581Z,23.18
2022-08-17T07:10:21.542Z,23.26
2022-08-17T07:11:21.510Z,23.31
2022-08-17T07:12:21.518Z,23.34
2022-08-17T07:13:21.515Z,23.39
2022-08-17T07:14:21.501Z,23.44
2022-08-17T07:15:21.577Z,23.44
2022-08-17T07:16:21.800Z,23.46
2022-08-17T07:17:22.010Z,23.51
2022-08-17T07:18:21.770Z,23.51
2022-08-17T07:19:21.461Z,23.56
2022-08-17T07:20:21.534Z,23.56
2022-08-17T07:21:26.181Z,23.56
2022-08-17T07:22:21.449Z,23.60
2022-08-17T07:23:21.431Z,23.63
2022-08-17T07:24:30.174Z,23.66
2022-08-17T07:25:22.391Z,23.70
2022-08-17T07:26:21.478Z,23.74
2022-08-17T07:27:21.475Z,23.81
2022-08-17T07:28:21.538Z,23.82
2022-08-17T07:29:21.419Z,23.85
2022-08-17T07:30:21.444Z,23.86
2022-08-17T07:31:21.380Z,23.91
2022-08-17T07:32:21.410Z,23.89
2022-08-17T07:33:21.810Z,23.92
2022-08-17T07:34:21.801Z,23.98
2022-08-17T07:35:21.406Z,24.07
2022-08-17T07:36:21.561Z,24.15
2022-08-17T07:37:21.411Z,24.23
2022-08-17T07:38:26.349Z,24.38
2022-08-17T07:39:21.760Z,24.48
2022-08-17T07:40:21.492Z,24.51
2022-08-17T07:41:21.390Z,24.63
2022-08-17T07:42:21.479Z,24.65
2022-08-17T07:43:22.239Z,24.70
2022-08-17T07:44:21.400Z,24.70
2022-08-17T07:45:21.491Z,24.71
2022-08-17T07:46:21.732Z,24.76
2022-08-17T07:47:21.269Z,24.85
2022-08-17T07:48:21.490Z,24.93
2022-08-17T07:49:21.259Z,25.04
2022-08-17T07:50:25.745Z,25.14
2022-08-17T07:51:22.250Z,25.31
2022-08-17T07:52:48.436Z,25.51
2022-08-17T07:53:21.229Z,25.56
2022-08-17T07:54:21.210Z,25.64
2022-08-17T07:55:21.260Z,25.73
2022-08-17T07:56:21.508Z,25.85
2022-08-17T07:57:21.200Z,26.07
2022-08-17T07:58:21.220Z,26.30
2022-08-17T07:59:23.682Z,26.39
2022-08-17T08:00:23.777Z,26.46
2022-08-17T08:01:21.208Z,26.49
2022-08-17T08:02:21.317Z,26.57
2022-08-17T08:03:21.263Z,26.52
2022-08-17T08:04:29.141Z,26.48
2022-08-17T08:05:49.290Z,26.48
2022-08-17T08:06:21.149Z,26.38
2022-08-17T08:07:21.475Z,26.26
2022-08-17T08:08:21.119Z,26.19
2022-08-17T08:09:21.271Z,26.08
2022-08-17T08:10:21.206Z,26.26
2022-08-17T08:11:21.139Z,26.48
2022-08-17T08:12:21.213Z,26.68
2022-08-17T08:13:21.094Z,26.89
2022-08-17T08:14:21.080Z,27.08
2022-08-17T08:15:21.859Z,27.15
2022-08-17T08:16:21.131Z,27.17
2022-08-17T08:17:21.066Z,27.10
2022-08-17T08:18:38.605Z,27.16
2022-08-17T08:19:21.266Z,27.16
2022-08-17T08:20:51.261Z,27.15
2022-08-17T08:21:21.110Z,27.17
2022-08-17T08:22:21.191Z,27.22
2022-08-17T08:23:21.218Z,27.05
2022-08-17T08:24:21.014Z,27.04
2022-08-17T08:25:21.000Z,27.13
2022-08-17T08:26:21.049Z,27.17
2022-08-17T08:27:20.991Z,27.12
2022-08-17T08:28:21.291Z,27.13
2022-08-17T08:29:20.990Z,27.22
2022-08-17T08:30:20.987Z,27.23
2022-08-17T08:31:21.167Z,27.23
2022-08-17T08:32:21.106Z,27.32
2022-08-17T08:33:20.968Z,27.35
2022-08-17T08:34:58.817Z,27.30
2022-08-17T08:35:21.262Z,27.12
2022-08-17T08:37:14.226Z,27.01
2022-08-17T08:37:32.735Z,27.04
2022-08-17T08:38:20.919Z,27.00
2022-08-17T08:39:20.920Z,26.83
2022-08-17T08:40:20.916Z,26.70
2022-08-17T08:41:20.919Z,26.73
2022-08-17T08:42:20.947Z,26.80
2022-08-17T08:43:20.888Z,26.93
2022-08-17T08:44:20.912Z,26.94
2022-08-17T08:45:20.871Z,26.95
2022-08-17T08:46:20.892Z,27.10
2022-08-17T08:47:20.969Z,27.22
2022-08-17T08:48:22.861Z,27.31
2022-08-17T08:49:33.852Z,27.42
2022-08-17T08:50:30.322Z,27.73
2022-08-17T08:51:20.850Z,27.87
2022-08-17T08:52:20.850Z,27.98
2022-08-17T08:53:20.889Z,28.09
2022-08-17T08:54:26.889Z,28.07
2022-08-17T08:55:20.811Z,28.19
2022-08-17T08:56:20.815Z,28.22
2022-08-17T08:57:29.105Z,28.56
2022-08-17T08:58:30.663Z,28.68
2022-08-17T08:59:21.001Z,28.71
2022-08-17T09:00:20.792Z,28.69
2022-08-17T09:01:20.919Z,28.54
2022-08-17T09:02:20.777Z,28.32
2022-08-17T09:03:20.761Z,28.01
2022-08-17T09:04:25.129Z,28.06
2022-08-17T09:05:20.791Z,28.13
2022-08-17T09:06:33.522Z,28.28
2022-08-17T09:07:20.740Z,28.43
2022-08-17T09:08:20.711Z,28.59
2022-08-17T09:09:20.709Z,28.71
2022-08-17T09:10:21.575Z,28.72
2022-08-17T09:11:20.744Z,28.75
2022-08-17T09:12:20.741Z,28.84
2022-08-17T09:13:20.741Z,28.74
2022-08-17T09:14:22.036Z,28.80
2022-08-17T09:15:20.678Z,28.77
2022-08-17T09:16:20.678Z,28.79
2022-08-17T09:17:20.663Z,28.86
2022-08-17T09:19:02.955Z,28.89
2022-08-17T09:19:20.648Z,29.00
2022-08-17T09:20:27.681Z,28.90
2022-08-17T09:21:20.650Z,28.83
2022-08-17T09:22:20.829Z,28.87
2022-08-17T09:23:20.680Z,28.89
2022-08-17T09:24:21.005Z,28.96
2022-08-17T09:25:20.611Z,28.89
2022-08-17T09:26:21.011Z,28.69
2022-08-17T09:27:20.820Z,28.75
2022-08-17T09:28:20.593Z,28.86
2022-08-17T09:29:20.581Z,28.86
2022-08-17T09:30:20.570Z,28.80
2022-08-17T09:31:20.593Z,28.53
2022-08-17T09:32:20.550Z,28.49
2022-08-17T09:33:20.551Z,28.40
2022-08-17T09:34:20.541Z,28.38
2022-08-17T09:35:20.742Z,28.27
2022-08-17T09:36:20.920Z,28.40
2022-08-17T09:37:20.954Z,28.62
2022-08-17T09:38:20.521Z,28.84
2022-08-17T09:39:20.521Z,29.02
2022-08-17T09:40:20.595Z,29.13
2022-08-17T09:41:21.153Z,29.27
2022-08-17T09:42:20.541Z,29.41
2022-08-17T09:43:20.611Z,29.59
2022-08-17T09:44:23.097Z,29.76
2022-08-17T09:45:20.514Z,29.78
2022-08-17T09:46:20.581Z,29.68
2022-08-17T09:47:20.470Z,29.66
2022-08-17T09:48:20.684Z,29.63
2022-08-17T09:49:25.033Z,29.71
2022-08-17T09:50:55.243Z,29.59
2022-08-17T09:51:20.451Z,29.55
2022-08-17T09:52:20.469Z,29.59
2022-08-17T09:53:20.526Z,29.47
2022-08-17T09:54:38.553Z,29.33
2022-08-17T09:55:20.623Z,29.41
2022-08-17T09:56:20.670Z,29.54
2022-08-17T09:57:35.827Z,29.68
2022-08-17T09:58:20.431Z,29.87
2022-08-17T09:59:20.395Z,29.96
2022-08-17T10:00:20.364Z,30.02
2022-08-17T10:01:20.480Z,30.02
2022-08-17T10:02:20.363Z,29.80
2022-08-17T10:03:20.358Z,29.58
2022-08-17T10:04:20.753Z,29.56
2022-08-17T10:05:20.342Z,29.68
2022-08-17T10:06:22.109Z,29.83
2022-08-17T10:07:20.813Z,29.74
2022-08-17T10:08:21.671Z,29.68
2022-08-17T10:09:20.319Z,29.59
2022-08-17T10:10:20.328Z,29.59
2022-08-17T10:11:20.331Z,29.49
2022-08-17T10:12:20.474Z,29.49
2022-08-17T10:13:20.933Z,29.55
2022-08-17T10:14:37.566Z,29.54
2022-08-17T10:15:20.322Z,29.25
2022-08-17T10:16:20.585Z,29.04
2022-08-17T10:17:20.362Z,28.84
2022-08-17T10:18:20.322Z,28.72
2022-08-17T10:19:20.283Z,28.72
2022-08-17T10:20:20.471Z,28.86
2022-08-17T10:21:20.420Z,28.94
2022-08-17T10:22:34.812Z,28.93
2022-08-17T10:23:20.311Z,28.87
2022-08-17T10:24:20.315Z,28.84
2022-08-17T10:25:22.183Z,28.86
2022-08-17T10:26:20.223Z,28.87
2022-08-17T10:27:20.221Z,28.96
2022-08-17T10:28:20.626Z,28.98
2022-08-17T10:29:20.338Z,29.00
2022-08-17T10:30:20.263Z,29.03
2022-08-17T10:31:36.243Z,29.02
2022-08-17T10:32:20.160Z,29.00
2022-08-17T10:33:20.415Z,28.98
2022-08-17T10:34:20.168Z,29.02
2022-08-17T10:35:20.143Z,29.03
2022-08-17T10:36:20.154Z,28.87
2022-08-17T10:37:20.212Z,28.87
2022-08-17T10:38:21.641Z,28.94
2022-08-17T10:39:20.322Z,28.94
2022-08-17T10:40:20.187Z,29.04
2022-08-17T10:41:20.124Z,29.10
2022-08-17T10:42:32.516Z,29.15
2022-08-17T10:43:20.084Z,29.24
2022-08-17T10:44:40.119Z,29.29
2022-08-17T10:45:20.142Z,29.33
2022-08-17T10:46:31.102Z,29.29
2022-08-17T10:47:20.063Z,29.33
2022-08-17T10:48:20.064Z,29.21
2022-08-17T10:49:20.374Z,29.18
2022-08-17T10:50:20.131Z,29.19
2022-08-17T10:51:20.083Z,29.24
2022-08-17T10:52:20.044Z,29.27
2022-08-17T10:53:20.082Z,29.25
2022-08-17T10:54:20.015Z,29.31
2022-08-17T10:55:20.612Z,29.36
2022-08-17T10:56:20.031Z,29.36
2022-08-17T10:57:19.997Z,29.41
2022-08-17T10:58:19.996Z,29.52
2022-08-17T10:59:19.993Z,29.50
2022-08-17T11:00:22.951Z,29.55
2022-08-17T11:01:20.012Z,29.59
2022-08-17T11:02:20.396Z,29.63
2022-08-17T11:03:20.104Z,29.73
2022-08-17T11:04:20.006Z,29.76
2022-08-17T11:05:20.944Z,29.71
2022-08-17T11:06:19.944Z,29.77
2022-08-17T11:07:19.924Z,29.65
2022-08-17T11:08:19.913Z,29.56
2022-08-17T11:09:20.105Z,29.50
2022-08-17T11:10:20.163Z,29.39
2022-08-17T11:11:19.913Z,29.33
2022-08-17T11:12:19.893Z,29.24
2022-08-17T11:13:19.895Z,29.24
2022-08-17T11:14:19.873Z,29.13
2022-08-17T11:15:19.884Z,29.12
2022-08-17T11:16:20.475Z,29.02
2022-08-17T11:17:19.934Z,28.94
2022-08-17T11:18:19.855Z,28.91
2022-08-17T11:19:19.851Z,28.90
2022-08-17T11:20:19.840Z,28.80
2022-08-17T11:21:19.855Z,28.64
2022-08-17T11:22:19.841Z,28.54
2022-08-17T11:23:19.874Z,28.46
2022-08-17T11:24:19.950Z,28.38
2022-08-17T11:25:19.866Z,28.34
2022-08-17T11:26:19.811Z,28.32
2022-08-17T11:27:19.797Z,28.30
2022-08-17T11:28:19.783Z,28.27
2022-08-17T11:29:19.774Z,28.10
2022-08-17T11:30:20.247Z,28.12
2022-08-17T11:31:20.025Z,28.13
2022-08-17T11:32:19.754Z,28.10
2022-08-17T11:33:19.797Z,28.07
2022-08-17T11:34:19.764Z,28.07
2022-08-17T11:35:19.733Z,28.05
2022-08-17T11:36:19.755Z,28.05
2022-08-17T11:37:19.737Z,27.97
2022-08-17T11:38:19.727Z,27.97
2022-08-17T11:39:20.585Z,27.93
2022-08-17T11:40:20.737Z,27.90
2022-08-17T11:41:19.938Z,27.82
2022-08-17T11:42:19.695Z,27.76
2022-08-17T11:43:19.683Z,27.70
2022-08-17T11:44:19.676Z,27.57
2022-08-17T11:45:32.262Z,27.50
2022-08-17T11:46:19.695Z,27.40
2022-08-17T11:47:19.665Z,27.34
2022-08-17T11:48:28.608Z,27.31
2022-08-17T11:49:19.832Z,27.31
2022-08-17T11:50:21.646Z,27.26
2022-08-17T11:51:19.814Z,27.32
2022-08-17T11:52:19.644Z,27.31
2022-08-17T11:53:19.624Z,27.30
2022-08-17T11:54:32.871Z,27.27
2022-08-17T11:55:35.025Z,27.19
2022-08-17T11:56:19.695Z,27.17
2022-08-17T11:57:20.037Z,27.15
2022-08-17T11:58:19.585Z,27.13
2022-08-17T11:59:19.573Z,27.05
2022-08-17T12:00:19.575Z,27.07
2022-08-17T12:01:19.835Z,27.13
2022-08-17T12:02:19.571Z,27.17
2022-08-17T12:03:19.584Z,27.23
2022-08-17T12:04:19.612Z,27.27
2022-08-17T12:05:19.904Z,27.34
2022-08-17T12:06:19.553Z,27.34
2022-08-17T12:07:19.523Z,27.35
2022-08-17T12:08:19.527Z,27.38
2022-08-17T12:09:19.514Z,27.40
2022-08-17T12:10:19.525Z,27.40
2022-08-17T12:11:58.650Z,27.42
2022-08-17T12:12:19.645Z,27.37
2022-08-17T12:13:19.484Z,27.38
2022-08-17T12:14:26.912Z,27.38
2022-08-17T12:15:19.475Z,27.42
2022-08-17T12:16:19.634Z,27.41
2022-08-17T12:17:24.712Z,27.42
2022-08-17T12:18:19.813Z,27.50
2022-08-17T12:19:19.464Z,27.57
2022-08-17T12:20:19.445Z,27.57
2022-08-17T12:21:19.528Z,27.70
2022-08-17T12:22:19.425Z,27.76
2022-08-17T12:23:19.411Z,27.90
2022-08-17T12:24:19.407Z,27.98
2022-08-17T12:25:19.404Z,28.09
2022-08-17T12:26:19.799Z,28.24
2022-08-17T12:27:19.846Z,28.43
2022-08-17T12:28:20.285Z,28.64
2022-08-17T12:29:35.676Z,28.83
2022-08-17T12:30:19.394Z,28.98
2022-08-17T12:31:20.014Z,29.15
2022-08-17T12:32:19.354Z,29.29
2022-08-17T12:33:25.483Z,29.39
2022-08-17T12:34:20.075Z,29.46
2022-08-17T12:35:19.335Z,29.49
2022-08-17T12:36:19.376Z,29.50
2022-08-17T12:37:19.326Z,29.52
2022-08-17T12:38:32.681Z,29.55
2022-08-17T12:39:21.355Z,29.54
2022-08-17T12:40:19.305Z,29.54
2022-08-17T12:41:19.635Z,29.59
2022-08-17T12:42:19.296Z,29.62
2022-08-17T12:43:20.065Z,29.71
2022-08-17T12:44:19.304Z,29.71
2022-08-17T12:45:19.292Z,29.71
2022-08-17T12:46:19.761Z,29.81
2022-08-17T12:47:22.433Z,29.78
2022-08-17T12:48:19.255Z,29.77
2022-08-17T12:49:20.256Z,29.70
2022-08-17T12:50:28.177Z,29.70
2022-08-17T12:51:19.297Z,29.68
2022-08-17T12:52:19.224Z,29.71